sensor_id;sensor_type;location;lat;lon;timestamp;temperature;humidity
16435;DHT22;8327;51.438;7.026;2022-07-12T00:00:00;17.60;99.90
16435;DHT22;8327;51.438;7.026;2022-07-12T00:01:00;17.50;99.90
16435;DHT22;8327;51.438;7.026;2022-07-12T00:02:01;17.60;99.90
16435;DHT22;8327;51.438;7.026;2022-07-12T00:03:02;17.20;99.90
16435;DHT22;8327;51.438;7.026;2022-07-12T00:04:02;17.10;99.90
16435;DHT22;8327;51.438;7.026;2022-07-12T00:05:03;17.00;99.90
16435;DHT22;8327;51.438;7.026;2022-07-12T00:06:04;17.00;99.90
16435;DHT22;8327;51.438;7.026;2022-07-12T00:07:04;16.90;99.90
16435;DHT22;8327;51.438;7.026;2022-07-12T00:08:05;16.90;99.90
16435;DHT22;8327;51.438;7.026;2022-07-12T00:09:06;16.90;99.90
16435;DHT22;8327;51.438;7.026;2022-07-12T00:10:07;16.90;99.90
16435;DHT22;8327;51.438;7.026;2022-07-12T00:11:08;16.90;99.90
16435;DHT22;8327;51.438;7.026;2022-07-12T00:12:09;16.80;99.90
16435;DHT22;8327;51.438;7.026;2022-07-12T00:13:10;16.80;99.90
16435;DHT22;8327;51.438;7.026;2022-07-12T00:14:11;16.80;99.90
16435;DHT22;8327;51.438;7.026;2022-07-12T00:15:11;16.80;99.90
16435;DHT22;8327;51.438;7.026;2022-07-12T00:16:12;16.80;99.90
16435;DHT22;8327;51.438;7.026;2022-07-12T00:17:12;16.80;99.90
16435;DHT22;8327;51.438;7.026;2022-07-12T00:18:13;16.80;99.90
16435;DHT22;8327;51.438;7.026;2022-07-12T00:19:13;16.80;99.90
16435;DHT22;8327;51.438;7.026;2022-07-12T00:20:14;16.80;99.90
16435;DHT22;8327;51.438;7.026;2022-07-12T00:21:14;16.80;99.90
16435;DHT22;8327;51.438;7.026;2022-07-12T00:22:15;16.80;99.90
16435;DHT22;8327;51.438;7.026;2022-07-12T00:23:15;16.90;99.90
16435;DHT22;8327;51.438;7.026;2022-07-12T00:24:16;16.80;99.90
16435;DHT22;8327;51.438;7.026;2022-07-12T00:25:16;16.80;99.90
16435;DHT22;8327;51.438;7.026;2022-07-12T00:26:17;16.80;99.90
16435;DHT22;8327;51.438;7.026;2022-07-12T00:27:17;16.80;99.90
16435;DHT22;8327;51.438;7.026;2022-07-12T00:28:18;16.80;99.90
16435;DHT22;8327;51.438;7.026;2022-07-12T00:29:18;16.80;99.90
16435;DHT22;8327;51.438;7.026;2022-07-12T00:30:19;16.80;99.90
16435;DHT22;8327;51.438;7.026;2022-07-12T00:31:19;16.90;99.90
16435;DHT22;8327;51.438;7.026;2022-07-12T00:32:20;17.10;99.90
16435;DHT22;8327;51.438;7.026;2022-07-12T00:33:21;17.20;99.90
16435;DHT22;8327;51.438;7.026;2022-07-12T00:34:21;17.30;99.90
16435;DHT22;8327;51.438;7.026;2022-07-12T00:35:22;17.20;99.90
16435;DHT22;8327;51.438;7.026;2022-07-12T00:36:22;17.10;99.90
16435;DHT22;8327;51.438;7.026;2022-07-12T00:37:23;17.00;99.90
16435;DHT22;8327;51.438;7.026;2022-07-12T00:38:23;17.00;99.90
16435;DHT22;8327;51.438;7.026;2022-07-12T00:39:23;17.00;99.90
16435;DHT22;8327;51.438;7.026;2022-07-12T00:40:24;16.90;99.90
16435;DHT22;8327;51.438;7.026;2022-07-12T00:41:24;16.80;99.90
16435;DHT22;8327;51.438;7.026;2022-07-12T00:42:26;16.80;99.90
16435;DHT22;8327;51.438;7.026;2022-07-12T00:43:26;16.70;99.90
16435;DHT22;8327;51.438;7.026;2022-07-12T00:44:27;16.70;99.90
16435;DHT22;8327;51.438;7.026;2022-07-12T00:45:27;16.70;99.90
16435;DHT22;8327;51.438;7.026;2022-07-12T00:46:27;16.70;99.90
16435;DHT22;8327;51.438;7.026;2022-07-12T00:48:30;16.60;99.90
16435;DHT22;8327;51.438;7.026;2022-07-12T00:49:31;16.60;99.90
16435;DHT22;8327;51.438;7.026;2022-07-12T00:50:32;17.00;99.90
16435;DHT22;8327;51.438;7.026;2022-07-12T00:51:33;16.70;99.90
16435;DHT22;8327;51.438;7.026;2022-07-12T00:52:33;16.70;99.90
16435;DHT22;8327;51.438;7.026;2022-07-12T00:53:35;16.60;99.90
16435;DHT22;8327;51.438;7.026;2022-07-12T00:54:36;16.60;99.90
16435;DHT22;8327;51.438;7.026;2022-07-12T00:55:37;16.60;99.90
16435;DHT22;8327;51.438;7.026;2022-07-12T00:56:38;16.50;99.90
16435;DHT22;8327;51.438;7.026;2022-07-12T00:57:39;16.50;99.90
16435;DHT22;8327;51.438;7.026;2022-07-12T00:58:40;16.50;99.90
16435;DHT22;8327;51.438;7.026;2022-07-12T00:59:41;16.40;99.90
16435;DHT22;8327;51.438;7.026;2022-07-12T01:00:41;16.50;99.90
16435;DHT22;8327;51.438;7.026;2022-07-12T01:01:42;16.50;99.90
16435;DHT22;8327;51.438;7.026;2022-07-12T01:02:43;16.50;99.90
16435;DHT22;8327;51.438;7.026;2022-07-12T01:03:43;16.50;99.90
16435;DHT22;8327;51.438;7.026;2022-07-12T01:04:44;16.40;99.90
16435;DHT22;8327;51.438;7.026;2022-07-12T01:05:46;16.40;99.90
16435;DHT22;8327;51.438;7.026;2022-07-12T01:06:46;16.40;99.90
16435;DHT22;8327;51.438;7.026;2022-07-12T01:07:47;16.40;99.90
16435;DHT22;8327;51.438;7.026;2022-07-12T01:08:48;16.30;99.90
16435;DHT22;8327;51.438;7.026;2022-07-12T01:09:48;16.30;99.90
16435;DHT22;8327;51.438;7.026;2022-07-12T01:10:49;16.50;99.90
16435;DHT22;8327;51.438;7.026;2022-07-12T01:11:50;16.40;99.90
16435;DHT22;8327;51.438;7.026;2022-07-12T01:12:50;16.40;99.90
16435;DHT22;8327;51.438;7.026;2022-07-12T01:13:51;16.30;99.90
16435;DHT22;8327;51.438;7.026;2022-07-12T01:14:52;16.40;99.90
16435;DHT22;8327;51.438;7.026;2022-07-12T01:15:53;16.40;99.90
16435;DHT22;8327;51.438;7.026;2022-07-12T01:16:53;16.40;99.90
16435;DHT22;8327;51.438;7.026;2022-07-12T01:17:55;16.40;99.90
16435;DHT22;8327;51.438;7.026;2022-07-12T01:18:56;16.30;99.90
16435;DHT22;8327;51.438;7.026;2022-07-12T01:19:57;16.40;99.90
16435;DHT22;8327;51.438;7.026;2022-07-12T01:21:00;16.30;99.90
16435;DHT22;8327;51.438;7.026;2022-07-12T01:22:02;16.40;99.90
16435;DHT22;8327;51.438;7.026;2022-07-12T01:23:02;16.40;99.90
16435;DHT22;8327;51.438;7.026;2022-07-12T01:24:04;16.40;99.90
16435;DHT22;8327;51.438;7.026;2022-07-12T01:25:06;16.40;99.90
16435;DHT22;8327;51.438;7.026;2022-07-12T01:26:07;16.40;99.90
16435;DHT22;8327;51.438;7.026;2022-07-12T01:27:08;16.30;99.90
16435;DHT22;8327;51.438;7.026;2022-07-12T01:28:09;16.30;99.90
16435;DHT22;8327;51.438;7.026;2022-07-12T01:29:09;16.30;99.90
16435;DHT22;8327;51.438;7.026;2022-07-12T01:30:10;16.30;99.90
16435;DHT22;8327;51.438;7.026;2022-07-12T01:31:11;16.20;99.90
16435;DHT22;8327;51.438;7.026;2022-07-12T01:32:11;16.20;99.90
16435;DHT22;8327;51.438;7.026;2022-07-12T01:33:27;16.20;99.90
16435;DHT22;8327;51.438;7.026;2022-07-12T01:34:28;16.20;99.90
16435;DHT22;8327;51.438;7.026;2022-07-12T01:35:28;16.20;99.90
16435;DHT22;8327;51.438;7.026;2022-07-12T01:36:29;16.20;99.90
16435;DHT22;8327;51.438;7.026;2022-07-12T01:37:33;16.20;99.90
16435;DHT22;8327;51.438;7.026;2022-07-12T01:38:34;16.20;99.90
16435;DHT22;8327;51.438;7.026;2022-07-12T01:39:35;16.10;99.90
16435;DHT22;8327;51.438;7.026;2022-07-12T01:40:35;16.10;99.90
16435;DHT22;8327;51.438;7.026;2022-07-12T01:41:36;16.00;99.90
16435;DHT22;8327;51.438;7.026;2022-07-12T01:42:37;16.20;99.90
16435;DHT22;8327;51.438;7.026;2022-07-12T01:43:38;16.00;99.90
16435;DHT22;8327;51.438;7.026;2022-07-12T01:44:38;16.00;99.90
16435;DHT22;8327;51.438;7.026;2022-07-12T01:45:39;16.00;99.90
16435;DHT22;8327;51.438;7.026;2022-07-12T01:46:40;16.00;99.90
16435;DHT22;8327;51.438;7.026;2022-07-12T01:47:40;16.00;99.90
16435;DHT22;8327;51.438;7.026;2022-07-12T01:48:40;16.10;99.90
16435;DHT22;8327;51.438;7.026;2022-07-12T01:49:41;16.10;99.90
16435;DHT22;8327;51.438;7.026;2022-07-12T01:50:42;16.00;99.90
16435;DHT22;8327;51.438;7.026;2022-07-12T01:51:42;16.00;99.90
16435;DHT22;8327;51.438;7.026;2022-07-12T01:52:43;16.00;99.90
16435;DHT22;8327;51.438;7.026;2022-07-12T01:53:43;16.00;99.90
16435;DHT22;8327;51.438;7.026;2022-07-12T01:54:44;16.00;99.90
16435;DHT22;8327;51.438;7.026;2022-07-12T01:55:44;16.00;99.90
16435;DHT22;8327;51.438;7.026;2022-07-12T01:56:45;16.10;99.90
16435;DHT22;8327;51.438;7.026;2022-07-12T01:57:45;16.00;99.90
16435;DHT22;8327;51.438;7.026;2022-07-12T01:58:45;16.00;99.90
16435;DHT22;8327;51.438;7.026;2022-07-12T01:59:46;16.10;99.90
16435;DHT22;8327;51.438;7.026;2022-07-12T02:00:47;16.00;99.90
16435;DHT22;8327;51.438;7.026;2022-07-12T02:01:51;16.00;99.90
16435;DHT22;8327;51.438;7.026;2022-07-12T02:02:52;16.00;99.90
16435;DHT22;8327;51.438;7.026;2022-07-12T02:03:53;16.00;99.90
16435;DHT22;8327;51.438;7.026;2022-07-12T02:04:53;15.90;99.90
16435;DHT22;8327;51.438;7.026;2022-07-12T02:05:54;15.90;99.90
16435;DHT22;8327;51.438;7.026;2022-07-12T02:06:55;15.50;99.90
16435;DHT22;8327;51.438;7.026;2022-07-12T02:07:56;15.90;99.90
16435;DHT22;8327;51.438;7.026;2022-07-12T02:08:56;15.90;99.90
16435;DHT22;8327;51.438;7.026;2022-07-12T02:09:57;15.90;99.90
16435;DHT22;8327;51.438;7.026;2022-07-12T02:10:57;15.80;99.90
16435;DHT22;8327;51.438;7.026;2022-07-12T02:11:58;15.80;99.90
16435;DHT22;8327;51.438;7.026;2022-07-12T02:13:02;15.80;99.90
16435;DHT22;8327;51.438;7.026;2022-07-12T02:14:02;15.70;99.90
16435;DHT22;8327;51.438;7.026;2022-07-12T02:15:06;15.80;99.90
16435;DHT22;8327;51.438;7.026;2022-07-12T02:16:07;15.80;99.90
16435;DHT22;8327;51.438;7.026;2022-07-12T02:17:08;15.90;99.90
16435;DHT22;8327;51.438;7.026;2022-07-12T02:18:08;16.00;99.90
16435;DHT22;8327;51.438;7.026;2022-07-12T02:19:11;16.00;99.90
16435;DHT22;8327;51.438;7.026;2022-07-12T02:20:12;16.00;99.90
16435;DHT22;8327;51.438;7.026;2022-07-12T02:21:13;16.00;99.90
16435;DHT22;8327;51.438;7.026;2022-07-12T02:22:13;15.90;99.90
16435;DHT22;8327;51.438;7.026;2022-07-12T02:23:14;15.80;99.90
16435;DHT22;8327;51.438;7.026;2022-07-12T02:24:14;15.80;99.90
16435;DHT22;8327;51.438;7.026;2022-07-12T02:25:15;15.90;99.90
16435;DHT22;8327;51.438;7.026;2022-07-12T02:26:15;15.80;99.90
16435;DHT22;8327;51.438;7.026;2022-07-12T02:27:15;15.80;99.90
16435;DHT22;8327;51.438;7.026;2022-07-12T02:28:16;15.80;99.90
16435;DHT22;8327;51.438;7.026;2022-07-12T02:29:17;15.80;99.90
16435;DHT22;8327;51.438;7.026;2022-07-12T02:30:18;16.00;99.90
16435;DHT22;8327;51.438;7.026;2022-07-12T02:31:18;15.70;99.90
16435;DHT22;8327;51.438;7.026;2022-07-12T02:32:18;15.70;99.90
16435;DHT22;8327;51.438;7.026;2022-07-12T02:33:19;15.70;99.90
16435;DHT22;8327;51.438;7.026;2022-07-12T02:34:20;15.80;99.90
16435;DHT22;8327;51.438;7.026;2022-07-12T02:35:20;15.80;99.90
16435;DHT22;8327;51.438;7.026;2022-07-12T02:36:20;15.80;99.90
16435;DHT22;8327;51.438;7.026;2022-07-12T02:37:21;15.80;99.90
16435;DHT22;8327;51.438;7.026;2022-07-12T02:38:22;15.80;99.90
16435;DHT22;8327;51.438;7.026;2022-07-12T02:39:22;15.80;99.90
16435;DHT22;8327;51.438;7.026;2022-07-12T02:40:23;15.80;99.90
16435;DHT22;8327;51.438;7.026;2022-07-12T02:41:42;15.80;99.90
16435;DHT22;8327;51.438;7.026;2022-07-12T02:42:43;15.70;99.90
16435;DHT22;8327;51.438;7.026;2022-07-12T02:43:43;15.60;99.90
16435;DHT22;8327;51.438;7.026;2022-07-12T02:44:43;15.60;99.90
16435;DHT22;8327;51.438;7.026;2022-07-12T02:45:44;15.60;99.90
16435;DHT22;8327;51.438;7.026;2022-07-12T02:46:44;15.60;99.90
16435;DHT22;8327;51.438;7.026;2022-07-12T02:47:45;15.60;99.90
16435;DHT22;8327;51.438;7.026;2022-07-12T02:48:45;15.60;99.90
16435;DHT22;8327;51.438;7.026;2022-07-12T02:49:46;15.70;99.90
16435;DHT22;8327;51.438;7.026;2022-07-12T02:50:46;15.70;99.90
16435;DHT22;8327;51.438;7.026;2022-07-12T02:51:47;15.70;99.90
16435;DHT22;8327;51.438;7.026;2022-07-12T02:52:47;15.70;99.90
16435;DHT22;8327;51.438;7.026;2022-07-12T02:53:48;15.70;99.90
16435;DHT22;8327;51.438;7.026;2022-07-12T02:54:48;15.60;99.90
16435;DHT22;8327;51.438;7.026;2022-07-12T02:55:49;15.60;99.90
16435;DHT22;8327;51.438;7.026;2022-07-12T02:56:49;15.70;99.90
16435;DHT22;8327;51.438;7.026;2022-07-12T02:57:50;15.70;99.90
16435;DHT22;8327;51.438;7.026;2022-07-12T02:58:50;15.60;99.90
16435;DHT22;8327;51.438;7.026;2022-07-12T02:59:50;15.60;99.90
16435;DHT22;8327;51.438;7.026;2022-07-12T03:00:51;15.60;99.90
16435;DHT22;8327;51.438;7.026;2022-07-12T03:01:51;15.70;99.90
16435;DHT22;8327;51.438;7.026;2022-07-12T03:02:52;15.70;99.90
16435;DHT22;8327;51.438;7.026;2022-07-12T03:03:52;15.70;99.90
16435;DHT22;8327;51.438;7.026;2022-07-12T03:04:53;15.70;99.90
16435;DHT22;8327;51.438;7.026;2022-07-12T03:05:53;15.90;99.90
16435;DHT22;8327;51.438;7.026;2022-07-12T03:06:54;15.60;99.90
16435;DHT22;8327;51.438;7.026;2022-07-12T03:07:54;15.60;99.90
16435;DHT22;8327;51.438;7.026;2022-07-12T03:08:55;15.60;99.90
16435;DHT22;8327;51.438;7.026;2022-07-12T03:09:55;15.60;99.90
16435;DHT22;8327;51.438;7.026;2022-07-12T03:10:55;15.60;99.90
16435;DHT22;8327;51.438;7.026;2022-07-12T03:11:56;15.60;99.90
16435;DHT22;8327;51.438;7.026;2022-07-12T03:12:56;15.60;99.90
16435;DHT22;8327;51.438;7.026;2022-07-12T03:13:57;15.60;99.90
16435;DHT22;8327;51.438;7.026;2022-07-12T03:14:57;15.60;99.90
16435;DHT22;8327;51.438;7.026;2022-07-12T03:15:58;15.60;99.90
16435;DHT22;8327;51.438;7.026;2022-07-12T03:16:59;15.60;99.90
16435;DHT22;8327;51.438;7.026;2022-07-12T03:18:00;15.60;99.90
16435;DHT22;8327;51.438;7.026;2022-07-12T03:19:03;15.60;99.90
16435;DHT22;8327;51.438;7.026;2022-07-12T03:20:04;15.60;99.90
16435;DHT22;8327;51.438;7.026;2022-07-12T03:21:10;15.60;99.90
16435;DHT22;8327;51.438;7.026;2022-07-12T03:22:11;15.60;99.90
16435;DHT22;8327;51.438;7.026;2022-07-12T03:23:12;15.60;99.90
16435;DHT22;8327;51.438;7.026;2022-07-12T03:24:12;15.60;99.90
16435;DHT22;8327;51.438;7.026;2022-07-12T03:25:13;15.60;99.90
16435;DHT22;8327;51.438;7.026;2022-07-12T03:26:13;15.60;99.90
16435;DHT22;8327;51.438;7.026;2022-07-12T03:27:14;15.60;99.90
16435;DHT22;8327;51.438;7.026;2022-07-12T03:28:14;15.60;99.90
16435;DHT22;8327;51.438;7.026;2022-07-12T03:29:14;15.60;99.90
16435;DHT22;8327;51.438;7.026;2022-07-12T03:30:15;15.60;99.90
16435;DHT22;8327;51.438;7.026;2022-07-12T03:31:16;15.60;99.90
16435;DHT22;8327;51.438;7.026;2022-07-12T03:32:16;15.60;99.90
16435;DHT22;8327;51.438;7.026;2022-07-12T03:33:17;15.60;99.90
16435;DHT22;8327;51.438;7.026;2022-07-12T03:34:17;15.60;99.90
16435;DHT22;8327;51.438;7.026;2022-07-12T03:35:18;15.60;99.90
16435;DHT22;8327;51.438;7.026;2022-07-12T03:36:18;15.60;99.90
16435;DHT22;8327;51.438;7.026;2022-07-12T03:37:19;15.60;99.90
16435;DHT22;8327;51.438;7.026;2022-07-12T03:38:19;15.60;99.90
16435;DHT22;8327;51.438;7.026;2022-07-12T03:39:19;15.60;99.90
16435;DHT22;8327;51.438;7.026;2022-07-12T03:40:20;15.60;99.90
16435;DHT22;8327;51.438;7.026;2022-07-12T03:41:21;15.60;99.90
16435;DHT22;8327;51.438;7.026;2022-07-12T03:42:21;15.60;99.90
16435;DHT22;8327;51.438;7.026;2022-07-12T03:43:22;15.70;99.90
16435;DHT22;8327;51.438;7.026;2022-07-12T03:44:22;15.60;99.90
16435;DHT22;8327;51.438;7.026;2022-07-12T03:45:23;15.60;99.90
16435;DHT22;8327;51.438;7.026;2022-07-12T03:46:23;15.60;99.90
16435;DHT22;8327;51.438;7.026;2022-07-12T03:47:23;15.60;99.90
16435;DHT22;8327;51.438;7.026;2022-07-12T03:48:24;15.60;99.90
16435;DHT22;8327;51.438;7.026;2022-07-12T03:49:24;15.50;99.90
16435;DHT22;8327;51.438;7.026;2022-07-12T03:50:25;15.60;99.90
16435;DHT22;8327;51.438;7.026;2022-07-12T03:51:26;15.50;99.90
16435;DHT22;8327;51.438;7.026;2022-07-12T03:52:26;15.50;99.90
16435;DHT22;8327;51.438;7.026;2022-07-12T03:53:27;15.40;99.90
16435;DHT22;8327;51.438;7.026;2022-07-12T03:54:27;15.50;99.90
16435;DHT22;8327;51.438;7.026;2022-07-12T03:55:27;15.60;99.90
16435;DHT22;8327;51.438;7.026;2022-07-12T03:56:28;15.70;99.90
16435;DHT22;8327;51.438;7.026;2022-07-12T03:57:48;15.70;99.90
16435;DHT22;8327;51.438;7.026;2022-07-12T03:58:48;15.70;99.90
16435;DHT22;8327;51.438;7.026;2022-07-12T03:59:49;15.70;99.90
16435;DHT22;8327;51.438;7.026;2022-07-12T04:00:49;15.70;99.90
16435;DHT22;8327;51.438;7.026;2022-07-12T04:01:49;15.70;99.90
16435;DHT22;8327;51.438;7.026;2022-07-12T04:02:50;15.70;99.90
16435;DHT22;8327;51.438;7.026;2022-07-12T04:03:53;15.70;99.90
16435;DHT22;8327;51.438;7.026;2022-07-12T04:04:55;15.70;99.90
16435;DHT22;8327;51.438;7.026;2022-07-12T04:05:55;15.70;99.90
16435;DHT22;8327;51.438;7.026;2022-07-12T04:06:55;15.70;99.90
16435;DHT22;8327;51.438;7.026;2022-07-12T04:07:56;15.70;99.90
16435;DHT22;8327;51.438;7.026;2022-07-12T04:08:56;15.60;99.90
16435;DHT22;8327;51.438;7.026;2022-07-12T04:09:57;15.60;99.90
16435;DHT22;8327;51.438;7.026;2022-07-12T04:10:57;15.70;99.90
16435;DHT22;8327;51.438;7.026;2022-07-12T04:11:58;15.60;99.90
16435;DHT22;8327;51.438;7.026;2022-07-12T04:12:58;15.70;99.90
16435;DHT22;8327;51.438;7.026;2022-07-12T04:13:59;15.70;99.90
16435;DHT22;8327;51.438;7.026;2022-07-12T04:14:59;15.70;99.90
16435;DHT22;8327;51.438;7.026;2022-07-12T04:16:00;15.60;99.90
16435;DHT22;8327;51.438;7.026;2022-07-12T04:17:00;15.60;99.90
16435;DHT22;8327;51.438;7.026;2022-07-12T04:18:01;15.60;99.90
16435;DHT22;8327;51.438;7.026;2022-07-12T04:19:01;15.60;99.90
16435;DHT22;8327;51.438;7.026;2022-07-12T04:20:02;15.70;99.90
16435;DHT22;8327;51.438;7.026;2022-07-12T04:21:03;15.70;99.90
16435;DHT22;8327;51.438;7.026;2022-07-12T04:22:03;15.70;99.90
16435;DHT22;8327;51.438;7.026;2022-07-12T04:23:04;15.60;99.90
16435;DHT22;8327;51.438;7.026;2022-07-12T04:24:04;15.60;99.90
16435;DHT22;8327;51.438;7.026;2022-07-12T04:25:06;15.60;99.90
16435;DHT22;8327;51.438;7.026;2022-07-12T04:26:07;15.60;99.90
16435;DHT22;8327;51.438;7.026;2022-07-12T04:27:07;15.60;99.90
16435;DHT22;8327;51.438;7.026;2022-07-12T04:28:07;15.50;99.90
16435;DHT22;8327;51.438;7.026;2022-07-12T04:29:08;15.50;99.90
16435;DHT22;8327;51.438;7.026;2022-07-12T04:30:08;15.40;99.90
16435;DHT22;8327;51.438;7.026;2022-07-12T04:31:09;15.40;99.90
16435;DHT22;8327;51.438;7.026;2022-07-12T04:32:09;15.50;99.90
16435;DHT22;8327;51.438;7.026;2022-07-12T04:33:10;15.50;99.90
16435;DHT22;8327;51.438;7.026;2022-07-12T04:34:11;15.60;99.90
16435;DHT22;8327;51.438;7.026;2022-07-12T04:35:11;15.60;99.90
16435;DHT22;8327;51.438;7.026;2022-07-12T04:36:12;15.70;99.90
16435;DHT22;8327;51.438;7.026;2022-07-12T04:37:12;15.70;99.90
16435;DHT22;8327;51.438;7.026;2022-07-12T04:38:13;15.60;99.90
16435;DHT22;8327;51.438;7.026;2022-07-12T04:39:13;15.60;99.90
16435;DHT22;8327;51.438;7.026;2022-07-12T04:40:14;15.60;99.90
16435;DHT22;8327;51.438;7.026;2022-07-12T04:41:14;15.60;99.90
16435;DHT22;8327;51.438;7.026;2022-07-12T04:42:15;15.60;99.90
16435;DHT22;8327;51.438;7.026;2022-07-12T04:43:16;15.70;99.90
16435;DHT22;8327;51.438;7.026;2022-07-12T04:44:16;15.70;99.90
16435;DHT22;8327;51.438;7.026;2022-07-12T04:45:17;15.80;99.90
16435;DHT22;8327;51.438;7.026;2022-07-12T04:46:17;15.80;99.90
16435;DHT22;8327;51.438;7.026;2022-07-12T04:47:18;15.80;99.90
16435;DHT22;8327;51.438;7.026;2022-07-12T04:48:18;15.80;99.90
16435;DHT22;8327;51.438;7.026;2022-07-12T04:49:19;15.90;99.90
16435;DHT22;8327;51.438;7.026;2022-07-12T04:50:19;15.90;99.90
16435;DHT22;8327;51.438;7.026;2022-07-12T04:51:20;15.90;99.90
16435;DHT22;8327;51.438;7.026;2022-07-12T04:52:20;15.90;99.90
16435;DHT22;8327;51.438;7.026;2022-07-12T04:53:21;15.90;99.90
16435;DHT22;8327;51.438;7.026;2022-07-12T04:54:21;16.00;99.90
16435;DHT22;8327;51.438;7.026;2022-07-12T04:55:21;16.10;99.90
16435;DHT22;8327;51.438;7.026;2022-07-12T04:56:22;16.20;99.90
16435;DHT22;8327;51.438;7.026;2022-07-12T04:57:22;16.20;99.90
16435;DHT22;8327;51.438;7.026;2022-07-12T04:58:23;16.30;99.90
16435;DHT22;8327;51.438;7.026;2022-07-12T04:59:23;16.30;99.90
16435;DHT22;8327;51.438;7.026;2022-07-12T05:00:25;16.40;99.90
16435;DHT22;8327;51.438;7.026;2022-07-12T05:01:25;16.40;99.90
16435;DHT22;8327;51.438;7.026;2022-07-12T05:02:26;16.40;99.90
16435;DHT22;8327;51.438;7.026;2022-07-12T05:03:26;16.40;99.90
16435;DHT22;8327;51.438;7.026;2022-07-12T05:04:27;16.40;99.90
16435;DHT22;8327;51.438;7.026;2022-07-12T05:05:27;16.40;99.90
16435;DHT22;8327;51.438;7.026;2022-07-12T05:06:28;16.50;99.90
16435;DHT22;8327;51.438;7.026;2022-07-12T05:07:28;16.90;99.90
16435;DHT22;8327;51.438;7.026;2022-07-12T05:08:29;16.70;99.90
16435;DHT22;8327;51.438;7.026;2022-07-12T05:09:29;16.80;99.90
16435;DHT22;8327;51.438;7.026;2022-07-12T05:10:30;16.90;99.90
16435;DHT22;8327;51.438;7.026;2022-07-12T05:11:30;17.10;99.90
16435;DHT22;8327;51.438;7.026;2022-07-12T05:12:32;17.20;99.90
16435;DHT22;8327;51.438;7.026;2022-07-12T05:13:34;17.30;99.90
16435;DHT22;8327;51.438;7.026;2022-07-12T05:14:34;17.40;99.90
16435;DHT22;8327;51.438;7.026;2022-07-12T05:15:35;17.50;99.90
16435;DHT22;8327;51.438;7.026;2022-07-12T05:16:35;17.50;99.90
16435;DHT22;8327;51.438;7.026;2022-07-12T05:17:36;17.70;99.90
16435;DHT22;8327;51.438;7.026;2022-07-12T05:18:37;17.70;99.90
16435;DHT22;8327;51.438;7.026;2022-07-12T05:19:37;17.70;99.90
16435;DHT22;8327;51.438;7.026;2022-07-12T05:20:38;17.60;99.90
16435;DHT22;8327;51.438;7.026;2022-07-12T05:21:38;17.60;99.90
16435;DHT22;8327;51.438;7.026;2022-07-12T05:22:39;17.70;99.90
16435;DHT22;8327;51.438;7.026;2022-07-12T05:23:41;17.70;99.90
16435;DHT22;8327;51.438;7.026;2022-07-12T05:24:42;17.60;99.90
16435;DHT22;8327;51.438;7.026;2022-07-12T05:25:42;17.60;99.90
16435;DHT22;8327;51.438;7.026;2022-07-12T05:26:42;17.70;99.90
16435;DHT22;8327;51.438;7.026;2022-07-12T05:27:43;17.70;99.90
16435;DHT22;8327;51.438;7.026;2022-07-12T05:28:44;17.70;99.90
16435;DHT22;8327;51.438;7.026;2022-07-12T05:29:44;17.80;99.90
16435;DHT22;8327;51.438;7.026;2022-07-12T05:30:44;17.80;99.90
16435;DHT22;8327;51.438;7.026;2022-07-12T05:31:45;17.90;99.90
16435;DHT22;8327;51.438;7.026;2022-07-12T05:32:45;18.00;99.90
16435;DHT22;8327;51.438;7.026;2022-07-12T05:33:46;18.00;99.90
16435;DHT22;8327;51.438;7.026;2022-07-12T05:34:46;18.00;99.90
16435;DHT22;8327;51.438;7.026;2022-07-12T05:35:47;18.10;99.90
16435;DHT22;8327;51.438;7.026;2022-07-12T05:36:47;18.10;99.90
16435;DHT22;8327;51.438;7.026;2022-07-12T05:37:48;18.10;99.90
16435;DHT22;8327;51.438;7.026;2022-07-12T05:38:48;18.00;99.90
16435;DHT22;8327;51.438;7.026;2022-07-12T05:39:49;18.10;99.90
16435;DHT22;8327;51.438;7.026;2022-07-12T05:40:50;18.10;99.90
16435;DHT22;8327;51.438;7.026;2022-07-12T05:41:50;18.30;99.90
16435;DHT22;8327;51.438;7.026;2022-07-12T05:42:51;18.30;99.90
16435;DHT22;8327;51.438;7.026;2022-07-12T05:43:51;18.20;99.90
16435;DHT22;8327;51.438;7.026;2022-07-12T05:44:52;18.20;99.90
16435;DHT22;8327;51.438;7.026;2022-07-12T05:45:54;18.10;99.90
16435;DHT22;8327;51.438;7.026;2022-07-12T05:46:54;18.00;99.90
16435;DHT22;8327;51.438;7.026;2022-07-12T05:47:54;18.10;99.90
16435;DHT22;8327;51.438;7.026;2022-07-12T05:48:55;18.10;99.90
16435;DHT22;8327;51.438;7.026;2022-07-12T05:49:55;18.20;99.90
16435;DHT22;8327;51.438;7.026;2022-07-12T05:50:56;18.00;99.90
16435;DHT22;8327;51.438;7.026;2022-07-12T05:52:16;18.00;99.90
16435;DHT22;8327;51.438;7.026;2022-07-12T05:53:36;18.10;99.90
16435;DHT22;8327;51.438;7.026;2022-07-12T05:54:36;18.60;99.90
16435;DHT22;8327;51.438;7.026;2022-07-12T05:55:37;18.30;99.90
16435;DHT22;8327;51.438;7.026;2022-07-12T05:56:37;18.30;99.90
16435;DHT22;8327;51.438;7.026;2022-07-12T05:57:38;18.30;99.90
16435;DHT22;8327;51.438;7.026;2022-07-12T05:58:38;17.90;99.90
16435;DHT22;8327;51.438;7.026;2022-07-12T05:59:38;18.20;99.90
16435;DHT22;8327;51.438;7.026;2022-07-12T06:00:39;18.20;99.90
16435;DHT22;8327;51.438;7.026;2022-07-12T06:01:39;18.30;99.90
16435;DHT22;8327;51.438;7.026;2022-07-12T06:02:40;18.30;99.90
16435;DHT22;8327;51.438;7.026;2022-07-12T06:03:41;18.30;99.90
16435;DHT22;8327;51.438;7.026;2022-07-12T06:04:41;18.50;99.90
16435;DHT22;8327;51.438;7.026;2022-07-12T06:05:41;18.60;99.90
16435;DHT22;8327;51.438;7.026;2022-07-12T06:06:42;18.80;99.90
16435;DHT22;8327;51.438;7.026;2022-07-12T06:07:42;18.60;99.90
16435;DHT22;8327;51.438;7.026;2022-07-12T06:08:43;18.60;99.90
16435;DHT22;8327;51.438;7.026;2022-07-12T06:09:43;18.70;99.90
16435;DHT22;8327;51.438;7.026;2022-07-12T06:10:44;18.70;99.90
16435;DHT22;8327;51.438;7.026;2022-07-12T06:11:44;18.70;99.90
16435;DHT22;8327;51.438;7.026;2022-07-12T06:12:45;18.90;99.90
16435;DHT22;8327;51.438;7.026;2022-07-12T06:13:45;19.10;99.90
16435;DHT22;8327;51.438;7.026;2022-07-12T06:14:45;19.20;99.90
16435;DHT22;8327;51.438;7.026;2022-07-12T06:15:48;19.30;99.90
16435;DHT22;8327;51.438;7.026;2022-07-12T06:16:48;19.30;99.90
16435;DHT22;8327;51.438;7.026;2022-07-12T06:17:49;19.30;99.90
16435;DHT22;8327;51.438;7.026;2022-07-12T06:18:49;19.40;99.90
16435;DHT22;8327;51.438;7.026;2022-07-12T06:19:50;19.40;99.90
16435;DHT22;8327;51.438;7.026;2022-07-12T06:20:50;19.80;99.90
16435;DHT22;8327;51.438;7.026;2022-07-12T06:21:51;19.30;99.90
16435;DHT22;8327;51.438;7.026;2022-07-12T06:22:51;19.20;99.90
16435;DHT22;8327;51.438;7.026;2022-07-12T06:23:52;19.20;99.90
16435;DHT22;8327;51.438;7.026;2022-07-12T06:24:53;19.30;99.90
16435;DHT22;8327;51.438;7.026;2022-07-12T06:25:53;19.20;99.90
16435;DHT22;8327;51.438;7.026;2022-07-12T06:26:54;19.60;99.90
16435;DHT22;8327;51.438;7.026;2022-07-12T06:27:54;19.40;99.90
16435;DHT22;8327;51.438;7.026;2022-07-12T06:28:55;19.50;99.90
16435;DHT22;8327;51.438;7.026;2022-07-12T06:29:55;19.40;99.90
16435;DHT22;8327;51.438;7.026;2022-07-12T06:30:56;19.40;99.90